createdAt,value
2022-07-31T00:00:41.499Z,44.11
2022-07-31T00:03:12.319Z,44.26
2022-07-31T00:05:43.835Z,44.51
2022-07-31T00:08:14.680Z,44.70
2022-07-31T00:10:45.369Z,44.97
2022-07-31T00:13:16.871Z,45.24
2022-07-31T00:15:47.602Z,45.31
2022-07-31T00:18:18.375Z,45.44
2022-07-31T00:20:49.813Z,45.82
2022-07-31T00:23:20.498Z,46.03
2022-07-31T00:25:51.331Z,46.02
2022-07-31T00:28:22.145Z,46.25
2022-07-31T00:30:53.171Z,46.32
2022-07-31T00:33:23.914Z,46.35
2022-07-31T00:35:54.684Z,46.86
2022-07-31T00:38:26.911Z,47.16
2022-07-31T00:40:58.493Z,47.13
2022-07-31T00:43:30.887Z,47.20
2022-07-31T00:46:01.948Z,47.40
2022-07-31T00:48:32.667Z,47.60
2022-07-31T00:51:04.486Z,47.74
2022-07-31T00:53:35.121Z,48.07
2022-07-31T00:56:06.149Z,48.35
2022-07-31T00:58:36.846Z,48.36
2022-07-31T01:01:07.570Z,48.34
2022-07-31T01:03:38.319Z,48.49
2022-07-31T01:06:09.691Z,48.61
2022-07-31T01:08:40.444Z,48.50
2022-07-31T01:11:12.811Z,48.61
2022-07-31T01:13:45.568Z,48.76
2022-07-31T01:16:16.447Z,49.00
2022-07-31T01:18:47.061Z,49.16
2022-07-31T01:21:19.669Z,49.28
2022-07-31T01:24:12.935Z,49.45
2022-07-31T01:26:47.660Z,49.48
2022-07-31T01:29:20.508Z,49.58
2022-07-31T01:31:51.401Z,49.61
2022-07-31T01:34:24.548Z,49.83
2022-07-31T01:36:57.351Z,49.70
2022-07-31T01:39:28.061Z,49.64
2022-07-31T01:42:06.945Z,49.62
2022-07-31T01:44:40.004Z,49.56
2022-07-31T01:47:10.741Z,49.55
2022-07-31T01:49:41.383Z,49.48
2022-07-31T01:52:12.197Z,49.46
2022-07-31T01:54:43.019Z,49.47
2022-07-31T01:57:17.380Z,49.49
2022-07-31T01:59:49.626Z,49.60
2022-07-31T02:02:25.416Z,49.63
2022-07-31T02:04:56.936Z,49.45
2022-07-31T02:07:27.586Z,49.56
2022-07-31T02:09:59.266Z,49.66
2022-07-31T02:12:33.941Z,49.83
2022-07-31T02:15:05.546Z,49.96
2022-07-31T02:17:36.786Z,49.96
2022-07-31T02:20:08.272Z,50.21
2022-07-31T02:22:38.884Z,50.57
2022-07-31T02:25:10.119Z,50.56
2022-07-31T02:27:54.285Z,50.70
2022-07-31T02:30:39.273Z,50.83
2022-07-31T02:33:11.757Z,50.75
2022-07-31T02:35:43.888Z,50.96
2022-07-31T02:38:18.091Z,50.85
2022-07-31T02:40:55.167Z,50.92
2022-07-31T02:43:25.813Z,51.17
2022-07-31T02:45:56.409Z,51.12
2022-07-31T02:48:27.308Z,51.30
2022-07-31T02:50:58.055Z,51.33
2022-07-31T02:53:28.721Z,51.35
2022-07-31T02:55:59.356Z,51.37
2022-07-31T02:58:30.186Z,51.55
2022-07-31T03:01:01.679Z,51.73
2022-07-31T03:03:32.461Z,52.01
2022-07-31T03:06:03.123Z,52.01
2022-07-31T03:08:33.820Z,52.35
2022-07-31T03:11:04.627Z,52.40
2022-07-31T03:13:35.519Z,52.45
2022-07-31T03:16:06.447Z,52.44
2022-07-31T03:18:37.255Z,52.74
2022-07-31T03:21:07.832Z,52.62
2022-07-31T03:23:38.526Z,52.78
2022-07-31T03:26:09.351Z,52.87
2022-07-31T03:28:40.017Z,52.62
2022-07-31T03:31:10.668Z,52.80
2022-07-31T03:33:42.814Z,52.93
2022-07-31T03:36:14.037Z,52.70
2022-07-31T03:38:48.754Z,52.89
2022-07-31T03:41:21.688Z,52.98
2022-07-31T03:43:52.356Z,53.17
2022-07-31T03:46:23.723Z,53.19
2022-07-31T03:48:54.445Z,53.25
2022-07-31T03:51:25.144Z,53.50
2022-07-31T03:53:55.825Z,53.32
2022-07-31T03:56:26.432Z,53.25
2022-07-31T03:58:57.293Z,53.31
2022-07-31T04:01:30.213Z,53.53
2022-07-31T04:04:20.836Z,53.59
2022-07-31T04:06:51.506Z,53.55
2022-07-31T04:09:22.179Z,53.74
2022-07-31T04:11:52.785Z,53.58
2022-07-31T04:14:23.534Z,53.77
2022-07-31T04:16:54.186Z,53.74
2022-07-31T04:19:24.913Z,53.89
2022-07-31T04:21:55.551Z,53.98
2022-07-31T04:24:26.195Z,53.99
2022-07-31T04:26:57.622Z,53.82
2022-07-31T04:29:29.734Z,54.06
2022-07-31T04:32:00.652Z,53.97
2022-07-31T04:34:31.505Z,54.05
2022-07-31T04:37:02.141Z,54.04
2022-07-31T04:39:32.922Z,54.10
2022-07-31T04:42:03.782Z,54.22
2022-07-31T04:44:34.772Z,54.30
2022-07-31T04:47:06.475Z,54.13
2022-07-31T04:49:37.176Z,54.35
2022-07-31T04:52:08.959Z,54.34
2022-07-31T04:54:40.286Z,54.04
2022-07-31T04:57:11.008Z,54.24
2022-07-31T04:59:59.913Z,54.27
2022-07-31T05:02:31.742Z,54.35
2022-07-31T05:05:02.462Z,54.39
2022-07-31T05:07:34.778Z,54.24
2022-07-31T05:10:05.793Z,54.19
2022-07-31T05:12:36.575Z,54.48
2022-07-31T05:15:08.662Z,54.25
2022-07-31T05:17:39.337Z,54.30
2022-07-31T05:20:10.969Z,54.10
2022-07-31T05:22:41.635Z,54.55
2022-07-31T05:25:12.390Z,54.31
2022-07-31T05:27:43.220Z,54.44
2022-07-31T05:30:15.183Z,54.64
2022-07-31T05:32:45.833Z,54.64
2022-07-31T05:35:16.557Z,54.61
2022-07-31T05:37:47.201Z,54.90
2022-07-31T05:40:18.006Z,54.71
2022-07-31T05:42:48.652Z,54.94
2022-07-31T05:45:20.289Z,54.76
2022-07-31T05:47:51.073Z,54.65
2022-07-31T05:50:21.978Z,54.56
2022-07-31T05:52:52.731Z,54.77
2022-07-31T05:55:23.546Z,54.92
2022-07-31T05:57:54.198Z,54.82
2022-07-31T06:00:25.177Z,54.83
2022-07-31T06:02:56.742Z,55.04
2022-07-31T06:05:27.542Z,55.09
2022-07-31T06:07:58.307Z,55.12
2022-07-31T06:10:29.578Z,54.85
2022-07-31T06:13:00.215Z,54.82
2022-07-31T06:15:35.803Z,54.81
2022-07-31T06:18:07.328Z,54.91
2022-07-31T06:20:38.069Z,55.10
2022-07-31T06:23:22.535Z,55.02
2022-07-31T06:25:57.256Z,55.16
2022-07-31T06:28:46.513Z,55.11
2022-07-31T06:31:22.185Z,55.26
2022-07-31T06:33:52.958Z,55.06
2022-07-31T06:36:23.843Z,55.19
2022-07-31T06:38:54.736Z,55.05
2022-07-31T06:41:43.037Z,55.44
2022-07-31T06:44:16.846Z,55.22
2022-07-31T06:46:48.704Z,55.28
2022-07-31T06:49:20.194Z,55.21
2022-07-31T06:51:50.962Z,55.36
2022-07-31T06:54:21.690Z,55.36
2022-07-31T06:56:57.965Z,55.00
2022-07-31T06:59:39.875Z,54.97
2022-07-31T07:02:11.502Z,55.24
2022-07-31T07:05:05.301Z,55.02
2022-07-31T07:07:33.103Z,55.08
2022-07-31T07:10:03.913Z,55.16
2022-07-31T07:12:34.735Z,55.09
2022-07-31T07:15:06.422Z,55.26
2022-07-31T07:17:37.677Z,55.04
2022-07-31T07:20:09.692Z,55.37
2022-07-31T07:22:40.314Z,55.54
2022-07-31T07:25:12.733Z,55.28
2022-07-31T07:27:44.621Z,55.20
2022-07-31T07:30:15.442Z,55.25
2022-07-31T07:32:46.092Z,55.37
2022-07-31T07:35:16.783Z,55.11
2022-07-31T07:37:47.517Z,55.39
2022-07-31T07:40:18.169Z,55.43
2022-07-31T07:42:49.002Z,55.49
2022-07-31T07:45:19.829Z,55.44
2022-07-31T07:48:02.867Z,55.21
2022-07-31T07:50:37.652Z,55.10
2022-07-31T07:53:08.409Z,55.25
2022-07-31T07:55:41.893Z,55.10
2022-07-31T07:58:12.488Z,55.12
2022-07-31T08:00:43.235Z,54.92
2022-07-31T08:03:49.953Z,54.60
2022-07-31T08:06:04.876Z,54.81
2022-07-31T08:08:35.595Z,54.85
2022-07-31T08:11:06.423Z,54.74
2022-07-31T08:13:38.878Z,54.96
2022-07-31T08:16:11.742Z,54.67
2022-07-31T08:18:42.423Z,54.41
2022-07-31T08:21:13.070Z,54.32
2022-07-31T08:23:43.743Z,54.29
2022-07-31T08:26:14.490Z,54.31
2022-07-31T08:28:50.790Z,54.20
2022-07-31T08:31:21.904Z,53.89
2022-07-31T08:33:53.120Z,53.85
2022-07-31T08:36:25.048Z,53.78
2022-07-31T08:38:55.771Z,53.55
2022-07-31T08:41:26.365Z,53.61
2022-07-31T08:44:01.685Z,53.46
2022-07-31T08:46:36.049Z,53.31
2022-07-31T08:49:07.429Z,53.42
2022-07-31T08:51:50.890Z,53.14
2022-07-31T08:54:22.601Z,53.00
2022-07-31T08:56:53.479Z,52.89
2022-07-31T08:59:24.288Z,52.50
2022-07-31T09:01:57.102Z,52.42
2022-07-31T09:04:27.771Z,52.06
2022-07-31T09:07:00.509Z,51.99
2022-07-31T09:09:50.792Z,51.61
2022-07-31T09:12:33.487Z,51.81
2022-07-31T09:15:05.368Z,51.35
2022-07-31T09:17:36.712Z,51.22
2022-07-31T09:20:08.113Z,50.59
2022-07-31T09:22:38.774Z,50.44
2022-07-31T09:25:12.344Z,49.94
2022-07-31T09:27:43.080Z,49.94
2022-07-31T09:30:14.215Z,49.76
2022-07-31T09:32:46.106Z,49.04
2022-07-31T09:35:16.989Z,48.77
2022-07-31T09:37:49.093Z,48.43
2022-07-31T09:40:20.901Z,48.06
2022-07-31T09:42:55.234Z,47.81
2022-07-31T09:45:26.991Z,47.60
2022-07-31T09:48:15.224Z,47.52
2022-07-31T09:50:55.972Z,47.19
2022-07-31T09:53:26.956Z,46.62
2022-07-31T09:55:58.291Z,46.39
2022-07-31T09:58:28.978Z,46.37
2022-07-31T10:00:59.813Z,46.14
2022-07-31T10:03:30.746Z,46.30
2022-07-31T10:06:01.803Z,46.06
2022-07-31T10:08:33.664Z,45.83
2022-07-31T10:11:04.356Z,45.08
2022-07-31T10:13:37.687Z,45.19
2022-07-31T10:16:13.322Z,45.24
2022-07-31T10:18:44.805Z,45.05
2022-07-31T10:21:15.567Z,44.89
2022-07-31T10:23:46.332Z,44.72
2022-07-31T10:26:16.980Z,44.54
2022-07-31T10:28:47.708Z,44.18
2022-07-31T10:31:18.408Z,43.95
2022-07-31T10:33:49.173Z,44.09
2022-07-31T10:36:20.237Z,44.13
2022-07-31T10:38:52.381Z,43.70
2022-07-31T10:41:25.383Z,43.43
2022-07-31T10:43:56.951Z,43.13
2022-07-31T10:46:30.508Z,42.80
2022-07-31T10:49:08.264Z,42.94
2022-07-31T10:51:48.961Z,42.97
2022-07-31T10:54:19.653Z,42.38
2022-07-31T10:56:50.371Z,42.22
2022-07-31T10:59:28.706Z,42.14
2022-07-31T11:02:00.138Z,42.12
2022-07-31T11:04:32.088Z,41.81
2022-07-31T11:07:03.107Z,41.97
2022-07-31T11:09:34.112Z,42.00
2022-07-31T11:12:22.072Z,41.90
2022-07-31T11:14:52.817Z,41.70
2022-07-31T11:18:21.889Z,41.96
2022-07-31T11:20:25.581Z,41.58
2022-07-31T11:22:57.147Z,41.35
2022-07-31T11:25:29.532Z,41.20
2022-07-31T11:28:10.811Z,40.91
2022-07-31T11:30:52.311Z,41.03
2022-07-31T11:33:42.703Z,40.89
2022-07-31T11:36:14.525Z,40.89
2022-07-31T11:38:46.763Z,40.60
2022-07-31T11:41:20.261Z,40.65
2022-07-31T11:43:54.588Z,40.83
2022-07-31T11:46:27.294Z,40.06
2022-07-31T11:48:58.351Z,40.17
2022-07-31T11:51:29.230Z,40.24
2022-07-31T11:54:00.480Z,40.20
2022-07-31T11:56:31.344Z,40.18
2022-07-31T11:59:02.176Z,40.01
2022-07-31T12:01:32.924Z,39.57
2022-07-31T12:04:08.462Z,39.44
2022-07-31T12:06:40.378Z,39.07
2022-07-31T12:10:00.977Z,38.98
2022-07-31T12:12:02.349Z,38.49
2022-07-31T12:14:35.152Z,38.55
2022-07-31T12:17:06.451Z,38.31
2022-07-31T12:19:38.795Z,38.01
2022-07-31T12:22:20.270Z,38.07
2022-07-31T12:24:55.947Z,37.93
2022-07-31T12:27:26.745Z,38.11
2022-07-31T12:29:57.484Z,38.28
2022-07-31T12:32:28.300Z,38.08
2022-07-31T12:35:06.331Z,37.98
2022-07-31T12:37:45.478Z,38.09
2022-07-31T12:40:26.851Z,38.57
2022-07-31T12:42:59.621Z,38.32
2022-07-31T12:45:34.442Z,38.35
2022-07-31T12:48:05.898Z,38.24
2022-07-31T12:50:36.625Z,38.37
2022-07-31T12:53:07.270Z,38.15
2022-07-31T12:55:38.333Z,38.17
2022-07-31T12:58:09.208Z,38.24
2022-07-31T13:00:40.397Z,38.02
2022-07-31T13:03:11.256Z,38.20
2022-07-31T13:05:42.036Z,37.96
2022-07-31T13:08:13.334Z,37.71
2022-07-31T13:10:44.056Z,37.58
2022-07-31T13:13:15.214Z,36.98
2022-07-31T13:15:45.980Z,37.39
2022-07-31T13:18:16.780Z,36.81
2022-07-31T13:20:47.544Z,36.58
2022-07-31T13:23:18.154Z,36.49
2022-07-31T13:25:48.820Z,36.48
2022-07-31T13:28:19.651Z,36.36
2022-07-31T13:30:54.761Z,35.92
2022-07-31T13:33:25.920Z,35.61
2022-07-31T13:35:56.544Z,35.76
2022-07-31T13:38:27.216Z,35.43
2022-07-31T13:41:15.699Z,35.28
2022-07-31T13:44:00.009Z,34.81
2022-07-31T13:46:31.550Z,34.36
2022-07-31T13:49:03.031Z,33.83
2022-07-31T13:51:33.883Z,33.74
2022-07-31T13:54:04.734Z,33.78
2022-07-31T13:56:42.408Z,33.44
2022-07-31T13:59:14.848Z,33.13
2022-07-31T14:02:02.876Z,33.39
2022-07-31T14:04:38.196Z,33.49
2022-07-31T14:07:10.352Z,33.37
2022-07-31T14:09:47.015Z,32.98
2022-07-31T14:12:26.127Z,33.03
2022-07-31T14:14:56.811Z,32.78
2022-07-31T14:17:27.582Z,32.47
2022-07-31T14:19:58.312Z,32.77
2022-07-31T14:22:30.452Z,32.76
2022-07-31T14:25:01.185Z,32.82
2022-07-31T14:27:31.971Z,32.83
2022-07-31T14:30:02.708Z,32.42
2022-07-31T14:32:33.446Z,32.58
2022-07-31T14:35:08.119Z,32.69
2022-07-31T14:37:41.898Z,32.75
2022-07-31T14:40:13.860Z,32.41
2022-07-31T14:42:44.691Z,32.53
2022-07-31T14:45:15.630Z,32.59
2022-07-31T14:47:46.579Z,33.16
2022-07-31T14:50:19.702Z,33.53
2022-07-31T14:52:50.983Z,34.02
2022-07-31T14:55:23.477Z,34.28
2022-07-31T14:57:54.276Z,34.40
2022-07-31T15:00:26.476Z,34.55
2022-07-31T15:02:57.161Z,34.79
2022-07-31T15:06:41.932Z,34.95
2022-07-31T15:08:18.629Z,35.41
2022-07-31T15:10:49.286Z,35.64
2022-07-31T15:13:20.087Z,35.90
2022-07-31T15:15:50.740Z,35.89
2022-07-31T15:18:21.627Z,36.28
2022-07-31T15:20:56.637Z,36.34
2022-07-31T15:23:27.422Z,36.87
2022-07-31T15:26:07.024Z,37.04
2022-07-31T15:28:37.716Z,37.23
2022-07-31T15:31:08.433Z,37.71
2022-07-31T15:33:39.256Z,38.21
2022-07-31T15:36:15.103Z,38.42
2022-07-31T15:38:46.212Z,38.75
2022-07-31T15:41:18.970Z,38.89
2022-07-31T15:43:49.969Z,39.25
2022-07-31T15:46:20.605Z,39.35
2022-07-31T15:48:52.340Z,39.54
2022-07-31T15:51:24.039Z,39.53
2022-07-31T15:53:54.724Z,39.78
2022-07-31T15:56:27.116Z,40.01
2022-07-31T15:58:59.824Z,40.14
2022-07-31T16:01:30.482Z,40.37
2022-07-31T16:04:01.464Z,40.62
2022-07-31T16:06:32.857Z,40.68
2022-07-31T16:09:03.657Z,40.82
2022-07-31T16:12:05.428Z,40.89
2022-07-31T16:14:25.068Z,41.00
2022-07-31T16:16:56.812Z,41.02
2022-07-31T16:19:28.394Z,41.08
2022-07-31T16:22:04.451Z,41.26
2022-07-31T16:24:35.772Z,41.34
2022-07-31T16:27:07.014Z,41.36
2022-07-31T16:29:58.858Z,41.40
2022-07-31T16:32:28.783Z,41.75
2022-07-31T16:35:01.310Z,41.57
2022-07-31T16:37:50.437Z,41.85
2022-07-31T16:40:30.514Z,41.93
2022-07-31T16:43:47.652Z,41.96
2022-07-31T16:45:54.364Z,42.13
2022-07-31T16:48:25.016Z,42.35
2022-07-31T16:50:55.685Z,42.20
2022-07-31T16:54:11.110Z,42.42
2022-07-31T16:56:17.628Z,42.43
2022-07-31T16:58:51.383Z,42.59
2022-07-31T17:01:57.668Z,42.70
2022-07-31T17:04:16.054Z,42.74
2022-07-31T17:06:47.441Z,42.76
2022-07-31T17:09:18.674Z,42.82
2022-07-31T17:11:51.679Z,42.96
2022-07-31T17:14:23.768Z,42.80
2022-07-31T17:16:54.755Z,43.06
2022-07-31T17:19:41.019Z,42.98
2022-07-31T17:22:18.547Z,43.04
2022-07-31T17:24:51.739Z,43.06
2022-07-31T17:27:22.685Z,43.18
2022-07-31T17:29:53.289Z,43.15
2022-07-31T17:32:23.971Z,43.21
2022-07-31T17:34:54.755Z,43.32
2022-07-31T17:37:25.431Z,43.22
2022-07-31T17:39:57.821Z,43.39
2022-07-31T17:42:28.846Z,43.55
2022-07-31T17:45:02.158Z,43.61
2022-07-31T17:47:33.808Z,43.71
2022-07-31T17:50:04.488Z,43.87
2022-07-31T17:52:35.239Z,44.12
2022-07-31T17:55:06.587Z,44.13
2022-07-31T17:57:37.538Z,44.16
2022-07-31T18:00:10.175Z,44.34
2022-07-31T18:02:40.884Z,44.52
2022-07-31T18:05:11.757Z,44.68
2022-07-31T18:07:42.456Z,44.73
2022-07-31T18:10:13.127Z,44.70
2022-07-31T18:12:57.502Z,44.94
2022-07-31T18:15:34.829Z,45.02
2022-07-31T18:18:06.939Z,45.21
2022-07-31T18:20:38.337Z,45.21
2022-07-31T18:23:10.248Z,45.29
2022-07-31T18:25:41.153Z,45.21
2022-07-31T18:28:11.947Z,45.42
2022-07-31T18:30:43.891Z,45.44
2022-07-31T18:33:17.421Z,45.54
2022-07-31T18:35:47.954Z,45.59
2022-07-31T18:38:18.731Z,45.74
2022-07-31T18:40:49.455Z,45.91
2022-07-31T18:43:20.117Z,46.18
2022-07-31T18:45:50.716Z,46.12
2022-07-31T18:48:21.485Z,46.46
2022-07-31T18:50:58.606Z,46.45
2022-07-31T18:53:33.367Z,46.73
2022-07-31T18:56:04.143Z,46.80
2022-07-31T18:58:34.809Z,46.98
2022-07-31T19:01:05.543Z,47.05
2022-07-31T19:03:36.327Z,47.24
2022-07-31T19:06:07.149Z,47.35
2022-07-31T19:08:37.828Z,47.44
2022-07-31T19:11:08.576Z,47.52
2022-07-31T19:13:39.214Z,47.65
2022-07-31T19:16:12.660Z,47.82
2022-07-31T19:18:45.880Z,47.81
2022-07-31T19:21:41.079Z,47.89
2022-07-31T19:24:11.885Z,47.97
2022-07-31T19:26:42.513Z,48.13
2022-07-31T19:29:15.394Z,48.15
2022-07-31T19:31:46.600Z,48.09
2022-07-31T19:34:18.524Z,48.21
2022-07-31T19:36:49.640Z,48.37
2022-07-31T19:39:20.363Z,48.31
2022-07-31T19:42:21.497Z,48.38
2022-07-31T19:44:41.752Z,48.41
2022-07-31T19:47:12.456Z,48.48
2022-07-31T19:49:45.101Z,48.76
2022-07-31T19:52:15.817Z,48.65
2022-07-31T19:54:46.462Z,48.79
2022-07-31T19:57:18.321Z,48.72
2022-07-31T19:59:48.960Z,48.78
2022-07-31T20:02:19.577Z,48.93
2022-07-31T20:04:50.255Z,48.98
2022-07-31T20:07:20.965Z,49.02
2022-07-31T20:09:51.684Z,49.11
2022-07-31T20:12:22.361Z,49.14
2022-07-31T20:14:53.012Z,49.29
2022-07-31T20:17:23.689Z,49.45
2022-07-31T20:20:14.851Z,49.61
2022-07-31T20:22:45.014Z,49.68
2022-07-31T20:25:20.293Z,49.49
2022-07-31T20:27:51.561Z,49.74
2022-07-31T20:30:25.252Z,49.54
2022-07-31T20:32:55.968Z,49.57
2022-07-31T20:35:32.789Z,49.73
2022-07-31T20:38:18.170Z,49.69
2022-07-31T20:40:54.186Z,49.71
2022-07-31T20:43:26.460Z,49.70
2022-07-31T20:45:58.348Z,49.76
2022-07-31T20:48:32.279Z,49.98
2022-07-31T20:51:03.685Z,49.76
2022-07-31T20:53:34.272Z,50.12
2022-07-31T20:56:05.136Z,49.99
2022-07-31T20:58:35.846Z,50.02
2022-07-31T21:01:06.618Z,50.13
2022-07-31T21:03:37.400Z,49.89
2022-07-31T21:06:08.227Z,50.06
2022-07-31T21:08:41.144Z,50.27
2022-07-31T21:11:16.054Z,50.13
2022-07-31T21:13:47.017Z,50.28
2022-07-31T21:16:17.782Z,50.41
2022-07-31T21:18:50.750Z,50.29
2022-07-31T21:21:21.470Z,50.33
2022-07-31T21:23:52.241Z,50.36
2022-07-31T21:26:22.878Z,50.33
2022-07-31T21:28:54.077Z,50.48
2022-07-31T21:31:25.345Z,50.50
2022-07-31T21:33:56.538Z,50.39
2022-07-31T21:36:27.231Z,50.71
2022-07-31T21:38:58.304Z,50.86
2022-07-31T21:41:29.549Z,50.70
2022-07-31T21:44:00.774Z,50.65
2022-07-31T21:46:32.101Z,50.86
2022-07-31T21:49:03.562Z,50.94
2022-07-31T21:51:35.399Z,51.11
2022-07-31T21:54:06.232Z,51.26
2022-07-31T21:56:37.103Z,51.31
2022-07-31T21:59:07.859Z,51.31
2022-07-31T22:01:38.831Z,51.32
2022-07-31T22:04:34.508Z,51.65
2022-07-31T22:07:23.598Z,51.96
2022-07-31T22:09:54.353Z,51.84
2022-07-31T22:12:25.117Z,52.26
2022-07-31T22:14:55.829Z,52.74
2022-07-31T22:17:26.586Z,52.95
2022-07-31T22:19:59.645Z,52.97
2022-07-31T22:22:31.378Z,53.26
2022-07-31T22:25:02.486Z,53.16
2022-07-31T22:27:50.844Z,53.52
2022-07-31T22:30:22.859Z,53.50
2022-07-31T22:32:54.075Z,53.68
2022-07-31T22:35:24.867Z,53.70
2022-07-31T22:37:55.659Z,53.65
2022-07-31T22:40:26.458Z,53.90
2022-07-31T22:42:58.189Z,53.90
2022-07-31T22:45:29.470Z,54.09
2022-07-31T22:48:00.267Z,53.66
2022-07-31T22:50:31.141Z,54.22
2022-07-31T22:53:01.991Z,54.00
2022-07-31T22:55:32.730Z,54.05
2022-07-31T22:58:03.497Z,54.09
2022-07-31T23:00:34.259Z,54.49
2022-07-31T23:03:05.058Z,54.46
2022-07-31T23:06:05.238Z,54.32
2022-07-31T23:08:26.601Z,54.56
2022-07-31T23:10:57.148Z,54.46
2022-07-31T23:13:27.890Z,54.50
2022-07-31T23:15:58.525Z,54.79
2022-07-31T23:18:30.556Z,54.67
2022-07-31T23:21:01.377Z,54.85
2022-07-31T23:23:32.034Z,54.86
2022-07-31T23:26:02.735Z,55.01
2022-07-31T23:28:33.401Z,54.82
2022-07-31T23:31:04.041Z,54.63
2022-07-31T23:33:34.661Z,54.72
2022-07-31T23:36:05.573Z,54.71
2022-07-31T23:38:36.345Z,54.97
2022-07-31T23:41:07.067Z,54.94
2022-07-31T23:43:37.837Z,55.22
2022-07-31T23:46:08.555Z,55.15
2022-07-31T23:48:39.371Z,55.26
2022-07-31T23:51:10.186Z,55.47
2022-07-31T23:53:40.835Z,55.49
2022-07-31T23:56:19.204Z,55.66
2022-07-31T23:58:50.607Z,55.50
